Strona główna
METAR-TAF:

METAR-TAF

Lotnisko :

Brooks Field

Marshall, Michigan, Stany Zjednoczone

Szerokość geograficzna: 42-15-04N, Długość geograficzna: 084-57-20W, wysokość: 287 m

Aktualna obserwacja pogody

Raport powstał 16 minut temu, godzina 16:36 UTC
Wiatr 6 kt od południowo-południowy zachód
Temperatura 25°C
Wilgotność 100%
Ciśnienie 1016 hPa
Widzialność: 16.1 km
Rozproszone chmury na wysokości 1200 ft
Zachmurzenie całkowite na wysokości 1700 ft

METAR: KRMY 161636Z AUTO 21006KT 10SM SCT012 OVC017 25/25 A2999 RMK AO2 T02480248

czas: 12:52 (16:52 UTC)


TAF: brakujący

Obserwacja i prognoza pogody dla ponad 4000 lotnisk (raport METAR i TAF).

Dostępne stacje oznaczono żółtymi i czerwonymi punktami na mapie.

Najedź kursorem aby zobaczyć nazwę stacji.

Kliknij aby zobaczyć obserwacje i prognozy pogody.

Aby zmienić mapę: kliknij na zielony przycisk z czarnym krzyżykiem, aby powiększyć; na zielony przycisk z myślnikiem, aby pomniejszyć; na zielone strzałki, aby przejść do map sąsiednich.


METAR-TAF: